Richmond, Vermont
Current Conditions -  °F | °C
As of 9:54 AM on Thursday 30 Oct 2014 (Local Time) from KBTV Reporting Station
Broken Clouds Broken Clouds  
Wind Chill: 43°   Ceiling: 4200
Heat Index: 47°   Visibility: 10mi
Dew Point: 36°   Wind: 8mph
Humidity: 66%   Direction: 310°NW
Pressure: 29.97"   Gusts: NA
Location:  44.41°N, 72.99°W
Report Text: KBTV 301354Z 31007KT 10SM FEW023 BKN042 BKN050 08/02 A2997 RMK AO2 SLP150 CLD BASES OBSCG MTNS E-S T00830022
Loading
Personal Weather Stations






























Interactive Weather Map
Tropical Storm Tracking
New forecast layout! Learn more

10-Day Weather Forecast

Advertisements
Track Severe Weather on mobile